Time;durP1;ratioP1;P1;durP2;ratioP2;P2;SDS_P1;SDS_P2;PMS_P1;PMS_P2;Temp;Humidity;BMP_temperature;BMP_pressure;BME280_temperature;BME280_humidity;BME280_pressure;Samples;Min_cycle;Max_cycle;Signal;HPM_P1;HPM_P2
2023/05/31 00:00:55;;;;;;;;;;;;;;;14.39;57.68;101100.84;4960353;28;2114;-73
2023/05/31 00:03:22;;;;;;;;;;;;;;;14.37;57.65;101092.94;4965378;28;2056;-76
2023/05/31 00:05:48;;;;;;;;;;;;;;;14.38;57.49;101093.75;4963740;28;1196;-75
2023/05/31 00:08:15;;;;;;;;;;;;;;;14.36;57.59;101087.78;4977303;28;1452;-75
2023/05/31 00:10:41;;;;;;;;;;;;;;;14.36;57.51;101106.75;4979369;28;2066;-75
2023/05/31 00:13:08;;;;;;;;;;;;;;;14.35;57.75;101111.31;4982426;28;1386;-75
2023/05/31 00:15:34;;;;;;;;;;;;;;;14.35;57.65;101108.59;4979913;28;1461;-75
2023/05/31 00:18:01;;;;;;;;;;;;;;;14.32;57.59;101104.50;4974208;28;2130;-75
2023/05/31 00:20:27;;;;;;;;;;;;;;;14.32;57.58;101107.19;4978055;28;2077;-73
2023/05/31 00:22:54;;;;;;;;;;;;;;;14.31;57.63;101110.94;4972250;28;1799;-75
2023/05/31 00:25:20;;;;;;;;;;;;;;;14.31;57.61;101107.41;4983297;28;1537;-74
2023/05/31 00:27:47;;;;;;;;;;;;;;;14.30;57.44;101109.31;4976772;28;2005;-75
2023/05/31 00:30:13;;;;;;;;;;;;;;;13.83;57.49;101027.06;4979929;28;1911;-72
2023/05/31 00:32:40;;;;;;;;;;;;;;;14.28;57.58;101102.47;4980694;28;1582;-75
2023/05/31 00:35:07;;;;;;;;;;;;;;;14.27;57.40;101098.13;4980946;28;1646;-75
2023/05/31 00:37:37;;;;;;;;;;;;;;;14.26;57.66;101108.09;4962320;28;1899;-76
2023/05/31 00:40:04;;;;;;;;;;;;;;;14.26;57.50;101104.56;4961602;28;1571;-73
2023/05/31 00:42:31;;;;;;;;;;;;;;;14.24;57.51;101107.53;4963384;28;2006;-74
2023/05/31 00:44:57;;;;;;;;;;;;;;;14.23;57.48;101100.44;4980938;28;2060;-75
2023/05/31 00:47:24;;;;;;;;;;;;;;;14.23;57.43;101105.03;4968631;28;1865;-75
2023/05/31 00:49:50;;;;;;;;;;;;;;;14.22;57.42;101108.81;4970703;28;1708;-75
2023/05/31 00:52:17;;;;;;;;;;;;;;;14.21;57.35;101105.28;4981884;28;1914;-75
2023/05/31 00:54:43;;;;;;;;;;;;;;;14.19;57.25;101107.38;4951319;28;1761;-73
2023/05/31 00:57:10;;;;;;;;;;;;;;;14.19;57.51;101093.00;4976981;28;2050;-74
2023/05/31 00:59:37;;;;;;;;;;;;;;;14.19;57.48;101101.97;4982629;28;1753;-74
2023/05/31 01:02:03;;;;;;;;;;;;;;;14.16;57.38;101094.31;4979467;28;2065;-75
2023/05/31 01:04:30;;;;;;;;;;;;;;;14.16;57.47;101104.31;4980336;28;2021;-74
2023/05/31 01:06:56;;;;;;;;;;;;;;;14.16;57.51;101102.44;4983192;28;954;-74
2023/05/31 01:09:23;;;;;;;;;;;;;;;14.14;57.30;101087.44;4976340;28;2050;-74
2023/05/31 01:11:50;;;;;;;;;;;;;;;14.12;57.27;101086.84;4981363;28;1979;-74
2023/05/31 01:14:16;;;;;;;;;;;;;;;14.12;57.27;101076.00;4979718;28;2152;-72
2023/05/31 01:16:43;;;;;;;;;;;;;;;14.11;57.17;101074.38;4965686;28;1825;-73
2023/05/31 01:19:10;;;;;;;;;;;;;;;14.09;57.22;101075.44;4962393;28;1982;-73
2023/05/31 01:21:37;;;;;;;;;;;;;;;14.09;57.19;101082.75;4977470;28;1926;-74
2023/05/31 01:24:04;;;;;;;;;;;;;;;14.08;57.18;101087.31;4976993;28;1473;-74
2023/05/31 01:26:30;;;;;;;;;;;;;;;14.06;57.28;101078.63;4967570;28;1961;-73
2023/05/31 01:28:57;;;;;;;;;;;;;;;14.06;57.35;101085.91;4954995;28;4665;-74
2023/05/31 01:31:23;;;;;;;;;;;;;;;14.06;57.19;101088.63;4975733;28;4578;-74
2023/05/31 01:33:50;;;;;;;;;;;;;;;14.05;57.13;101085.06;4964808;28;1535;-75
2023/05/31 01:36:16;;;;;;;;;;;;;;;14.04;57.13;101080.72;4977826;28;3826;-74
2023/05/31 01:38:43;;;;;;;;;;;;;;;14.04;57.19;101088.84;4976946;28;1674;-73
2023/05/31 01:41:12;;;;;;;;;;;;;;;14.03;57.28;101087.19;4980887;28;1220;-73
2023/05/31 01:43:39;;;;;;;;;;;;;;;14.03;56.99;101094.47;4976572;28;2020;-76
2023/05/31 01:46:05;;;;;;;;;;;;;;;14.01;57.11;101102.84;4956690;28;2016;-75
2023/05/31 01:48:32;;;;;;;;;;;;;;;13.99;56.98;101102.22;4962778;28;3843;-76
2023/05/31 01:50:58;;;;;;;;;;;;;;;13.97;56.98;101093.53;4974610;28;2073;-74
2023/05/31 01:53:25;;;;;;;;;;;;;;;14.05;56.71;101095.91;4956553;28;1651;-74
2023/05/31 01:55:52;;;;;;;;;;;;;;;14.05;56.69;101087.78;4968752;28;1889;-74
2023/05/31 01:58:18;;;;;;;;;;;;;;;14.05;56.82;101090.47;4976101;28;1990;-74
2023/05/31 02:00:45;;;;;;;;;;;;;;;14.08;56.50;101090.03;4976932;28;1750;-75
2023/05/31 02:03:11;;;;;;;;;;;;;;;14.11;56.48;101096.03;4980284;28;1388;-75
2023/05/31 02:05:38;;;;;;;;;;;;;;;14.27;56.02;101098.13;4978412;28;1981;-75
2023/05/31 02:08:04;;;;;;;;;;;;;;;14.15;56.06;101097.22;4975256;28;1419;-75
2023/05/31 02:10:31;;;;;;;;;;;;;;;14.26;56.04;101088.31;4963009;28;1604;-75
2023/05/31 02:12:57;;;;;;;;;;;;;;;14.60;54.71;101086.78;4978329;28;1967;-75
2023/05/31 02:15:24;;;;;;;;;;;;;;;14.43;55.05;101080.34;4957721;28;1905;-75
2023/05/31 02:17:51;;;;;;;;;;;;;;;14.65;54.54;101083.38;4980718;28;2016;-74
2023/05/31 02:20:18;;;;;;;;;;;;;;;14.29;55.63;101094.13;4958059;28;2034;-75
2023/05/31 02:22:44;;;;;;;;;;;;;;;14.45;54.94;101087.19;4959421;28;1593;-75
2023/05/31 02:25:11;;;;;;;;;;;;;;;14.45;55.14;101094.50;4978822;28;1977;-74
2023/05/31 02:27:37;;;;;;;;;;;;;;;14.56;54.69;101087.47;4976695;28;2022;-75
2023/05/31 02:30:04;;;;;;;;;;;;;;;14.79;54.10;101092.09;4964990;28;2335;-75
2023/05/31 02:32:31;;;;;;;;;;;;;;;14.37;55.01;101094.84;4975787;28;1938;-75
2023/05/31 02:34:57;;;;;;;;;;;;;;;14.50;54.71;101089.19;4975237;28;1779;-75
2023/05/31 02:37:24;;;;;;;;;;;;;;;14.51;54.70;101089.00;4980247;28;1532;-75
2023/05/31 02:39:53;;;;;;;;;;;;;;;14.37;54.90;101081.28;4978015;28;1701;-75
2023/05/31 02:42:19;;;;;;;;;;;;;;;14.52;54.41;101081.69;4974592;28;1618;-76
2023/05/31 02:44:46;;;;;;;;;;;;;;;14.56;54.35;101090.19;4963261;28;1926;-75
2023/05/31 02:47:12;;;;;;;;;;;;;;;14.43;54.67;101085.78;4957036;28;1737;-75
2023/05/31 02:49:39;;;;;;;;;;;;;;;14.60;54.19;101091.38;4960825;28;1648;-75
2023/05/31 02:52:06;;;;;;;;;;;;;;;14.32;54.90;101101.78;4977125;28;1977;-76
2023/05/31 02:54:32;;;;;;;;;;;;;;;14.35;54.92;101086.09;4979245;28;2108;-73
2023/05/31 02:56:59;;;;;;;;;;;;;;;14.36;54.61;101101.31;4979938;28;1330;-75
2023/05/31 02:59:25;;;;;;;;;;;;;;;14.41;54.60;101102.28;4977037;28;2079;-73
2023/05/31 03:01:52;;;;;;;;;;;;;;;14.41;54.50;101107.69;4961008;28;2205;-74
2023/05/31 03:04:19;;;;;;;;;;;;;;;14.43;54.14;101099.31;4980360;28;1985;-74
2023/05/31 03:06:45;;;;;;;;;;;;;;;14.52;53.99;101104.19;4978592;28;1377;-73
2023/05/31 03:09:16;;;;;;;;;;;;;;;14.53;54.02;101097.75;4960444;28;1478;-74
2023/05/31 03:11:42;;;;;;;;;;;;;;;14.54;53.88;101093.97;4979982;28;1973;-73
2023/05/31 03:14:09;;;;;;;;;;;;;;;14.53;53.91;101100.44;4975556;28;2173;-74
2023/05/31 03:16:36;;;;;;;;;;;;;;;14.54;53.91;101095.84;4958270;28;2023;-74
2023/05/31 03:19:02;;;;;;;;;;;;;;;14.56;53.89;101104.59;4978740;28;1939;-74
2023/05/31 03:21:29;;;;;;;;;;;;;;;14.44;54.14;101100.97;4981756;28;1426;-74
2023/05/31 03:23:55;;;;;;;;;;;;;;;14.42;54.14;101119.38;4972752;28;2438;-73
2023/05/31 03:26:22;;;;;;;;;;;;;;;14.28;54.53;101119.53;4981369;28;1561;-74
2023/05/31 03:28:48;;;;;;;;;;;;;;;14.41;53.99;101114.97;4979528;28;1487;-74
2023/05/31 03:31:15;;;;;;;;;;;;;;;14.50;53.97;101109.03;4962796;28;1985;-74
2023/05/31 03:33:41;;;;;;;;;;;;;;;14.49;53.94;101101.09;4977587;28;2054;-73
2023/05/31 03:36:08;;;;;;;;;;;;;;;14.45;53.70;101102.63;4980217;28;1387;-74
2023/05/31 03:38:34;;;;;;;;;;;;;;;14.59;53.51;101093.28;4960436;28;1494;-75
2023/05/31 03:41:01;;;;;;;;;;;;;;;14.26;54.48;101101.84;4978472;28;2185;-73
2023/05/31 03:43:27;;;;;;;;;;;;;;;14.36;53.96;101094.00;4979153;28;2066;-74
2023/05/31 03:45:54;;;;;;;;;;;;;;;14.39;53.88;101103.56;4973862;28;1355;-74
2023/05/31 03:48:21;;;;;;;;;;;;;;;14.39;53.94;101090.84;4981977;28;1412;-74
2023/05/31 03:50:47;;;;;;;;;;;;;;;14.53;53.59;101097.75;4984700;28;1393;-73
2023/05/31 03:53:14;;;;;;;;;;;;;;;14.47;53.54;101084.25;4963214;28;2059;-75
2023/05/31 03:55:40;;;;;;;;;;;;;;;14.19;54.05;101082.19;4962800;28;2255;-76
2023/05/31 03:58:07;;;;;;;;;;;;;;;14.33;53.86;101078.22;4982023;28;1630;-75
2023/05/31 04:00:34;;;;;;;;;;;;;;;14.40;53.68;101086.25;4966682;28;4599;-75
2023/05/31 04:03:00;;;;;;;;;;;;;;;14.28;53.87;101097.03;4981306;28;1704;-73
2023/05/31 04:05:27;;;;;;;;;;;;;;;14.36;53.56;101104.84;4983520;28;3616;-74
2023/05/31 04:07:53;;;;;;;;;;;;;;;14.21;54.04;101116.13;4980945;28;1587;-73
2023/05/31 04:10:20;;;;;;;;;;;;;;;14.00;54.69;101114.75;4981220;28;2014;-76
2023/05/31 04:13:07;;;;;;;;;;;;;;;14.56;53.10;101120.00;4975195;28;2017;-75
2023/05/31 04:15:59;;;;;;;;;;;;;;;14.64;52.65;101123.19;4971598;28;1579;-74
2023/05/31 04:18:51;;;;;;;;;;;;;;;14.60;52.66;101135.56;4970950;28;3608;-74
2023/05/31 04:21:43;;;;;;;;;;;;;;;14.35;53.58;101124.03;4972453;28;1945;-75
2023/05/31 04:24:35;;;;;;;;;;;;;;;14.27;53.71;101138.75;4970339;28;1986;-75
2023/05/31 04:27:27;;;;;;;;;;;;;;;14.32;53.38;101134.31;4970993;28;1924;-74
2023/05/31 04:30:18;;;;;;;;;;;;;;;13.93;54.43;101135.63;4970466;28;1965;-74
2023/05/31 04:33:10;;;;;;;;;;;;;;;14.01;54.17;101132.63;4975373;28;1961;-73
2023/05/31 04:36:03;;;;;;;;;;;;;;;13.98;54.42;101127.66;4971995;28;1878;-76
2023/05/31 04:38:55;;;;;;;;;;;;;;;14.02;54.25;101128.84;4973461;28;1545;-75
2023/05/31 04:41:47;;;;;;;;;;;;;;;13.93;54.24;101141.06;4970333;28;2024;-74
2023/05/31 04:44:39;;;;;;;;;;;;;;;13.84;54.32;101139.72;4972247;28;2627;-73
2023/05/31 04:47:31;;;;;;;;;;;;;;;13.60;55.10;101142.28;4974414;28;1467;-74
2023/05/31 04:50:23;;;;;;;;;;;;;;;13.57;55.29;101150.03;4970548;28;1924;-75
2023/05/31 04:53:15;;;;;;;;;;;;;;;13.05;55.51;101057.53;4973287;28;1907;-76
2023/05/31 04:56:09;;;;;;;;;;;;;;;13.58;55.20;101152.50;4968039;28;1978;-77
2023/05/31 04:59:00;;;;;;;;;;;;;;;13.56;55.52;101140.25;4969850;28;1875;-75
2023/05/31 05:01:52;;;;;;;;;;;;;;;13.52;55.46;101136.34;4971573;28;2113;-75
2023/05/31 05:04:44;;;;;;;;;;;;;;;13.52;55.38;101137.16;4975018;28;1926;-75
2023/05/31 05:07:36;;;;;;;;;;;;;;;13.50;55.56;101144.69;4975443;28;1429;-75
2023/05/31 05:10:28;;;;;;;;;;;;;;;13.49;55.26;101142.19;4976169;28;1374;-76
2023/05/31 05:13:20;;;;;;;;;;;;;;;13.50;55.34;101146.56;4973099;28;1969;-75
2023/05/31 05:16:11;;;;;;;;;;;;;;;13.49;55.47;101137.63;4972382;28;2092;-75
2023/05/31 05:19:03;;;;;;;;;;;;;;;13.49;55.14;101137.63;4973702;28;2053;-74
2023/05/31 05:21:55;;;;;;;;;;;;;;;13.49;55.42;101129.50;4975062;28;1570;-74
2023/05/31 05:24:46;;;;;;;;;;;;;;;13.50;55.41;101131.16;4966302;28;1751;-76
2023/05/31 05:27:39;;;;;;;;;;;;;;;13.51;55.00;101135.53;4965105;28;1885;-75
2023/05/31 05:30:30;;;;;;;;;;;;;;;13.50;55.27;101133.88;4976758;28;1798;-75
2023/05/31 05:33:22;;;;;;;;;;;;;;;13.49;55.20;101136.78;4973509;28;1902;-73
2023/05/31 05:36:14;;;;;;;;;;;;;;;13.48;55.33;101138.69;4975396;28;1157;-74
2023/05/31 05:39:06;;;;;;;;;;;;;;;13.50;55.11;101144.69;4973438;28;2177;-73
2023/05/31 05:41:58;;;;;;;;;;;;;;;13.49;55.25;101155.72;4975523;28;1109;-74
2023/05/31 05:44:50;;;;;;;;;;;;;;;13.49;55.21;101161.97;4975255;28;1341;-74
2023/05/31 05:47:44;;;;;;;;;;;;;;;13.49;55.31;101178.19;4974608;28;2454;-75
2023/05/31 05:50:35;;;;;;;;;;;;;;;13.49;55.16;101170.09;4974658;28;2199;-76
2023/05/31 05:53:27;;;;;;;;;;;;;;;13.49;55.19;101161.97;4974052;28;1958;-74
2023/05/31 05:56:19;;;;;;;;;;;;;;;13.49;55.09;101164.66;4974122;28;1844;-75
2023/05/31 05:59:11;;;;;;;;;;;;;;;13.49;55.28;101153.03;4974744;28;1984;-75
2023/05/31 06:02:03;;;;;;;;;;;;;;;13.49;55.23;101151.13;4972588;28;1887;-75
2023/05/31 06:04:57;;;;;;;;;;;;;;;13.49;55.27;101156.56;4970869;28;2135;-75
2023/05/31 06:07:49;;;;;;;;;;;;;;;13.51;55.21;101156.34;4967461;28;1952;-76
2023/05/31 06:10:41;;;;;;;;;;;;;;;13.49;54.87;101142.19;4967662;28;1816;-75
2023/05/31 06:13:33;;;;;;;;;;;;;;;13.50;55.10;101141.13;4962642;28;2197;-76
2023/05/31 06:16:24;;;;;;;;;;;;;;;13.49;54.75;101143.03;4970312;28;1872;-74
2023/05/31 06:19:16;;;;;;;;;;;;;;;13.50;54.52;101136.59;4974996;28;1603;-75
2023/05/31 06:22:07;;;;;;;;;;;;;;;13.50;54.89;101138.44;4971954;28;1804;-74
2023/05/31 06:24:59;;;;;;;;;;;;;;;13.51;54.89;101145.53;4971611;28;1872;-76
2023/05/31 06:27:35;;;;;;;;;;;;;;;13.49;55.11;101148.44;4966381;28;1497;-75
2023/05/31 06:30:09;;;;;;;;;;;;;;;13.50;55.08;101146.56;4959668;28;4727;-75
2023/05/31 06:32:44;;;;;;;;;;;;;;;13.50;55.09;101144.69;4965592;28;3911;-77
2023/05/31 06:35:11;;;;;;;;;;;;;;;13.50;54.95;101139.28;4975481;28;2931;-75
2023/05/31 06:37:37;;;;;;;;;;;;;;;13.51;54.78;101140.09;4978832;28;1989;-76
2023/05/31 06:40:04;;;;;;;;;;;;;;;13.51;54.98;101140.09;4979851;28;1510;-76
2023/05/31 06:42:31;;;;;;;;;;;;;;;13.51;54.80;101132.00;4975652;28;2038;-76
2023/05/31 06:44:57;;;;;;;;;;;;;;;13.51;55.11;101137.41;4978976;28;1920;-76
2023/05/31 06:47:24;;;;;;;;;;;;;;;13.53;55.01;101136.13;4973885;28;4013;-75
2023/05/31 06:49:50;;;;;;;;;;;;;;;13.55;54.95;101138.59;4981079;28;1566;-77
2023/05/31 06:52:17;;;;;;;;;;;;;;;13.53;55.17;101138.84;4975079;28;2005;-76
2023/05/31 06:54:43;;;;;;;;;;;;;;;13.55;55.23;101135.88;4980600;28;1441;-74
2023/05/31 06:57:10;;;;;;;;;;;;;;;13.54;55.18;101145.88;4980067;28;1593;-74
2023/05/31 06:59:37;;;;;;;;;;;;;;;13.55;55.04;101138.59;4978117;28;1945;-74
2023/05/31 07:02:03;;;;;;;;;;;;;;;13.55;55.30;101142.13;4977326;28;1659;-75
2023/05/31 07:04:30;;;;;;;;;;;;;;;13.56;55.17;101138.38;4979706;28;1964;-75
2023/05/31 07:06:56;;;;;;;;;;;;;;;13.56;55.05;101148.34;4964213;28;1985;-75
2023/05/31 07:09:23;;;;;;;;;;;;;;;13.56;55.11;101140.25;4978571;28;1944;-75
2023/05/31 07:11:50;;;;;;;;;;;;;;;13.58;55.17;101132.72;4980689;28;1540;-74
2023/05/31 07:14:17;;;;;;;;;;;;;;;13.57;55.29;101136.50;4978336;28;1911;-76
2023/05/31 07:16:43;;;;;;;;;;;;;;;13.62;54.60;101129.38;4976578;28;1968;-75
2023/05/31 07:19:10;;;;;;;;;;;;;;;13.61;54.53;101135.81;4972082;28;1496;-74
2023/05/31 07:21:37;;;;;;;;;;;;;;;13.61;54.51;101134.97;4967310;28;1819;-76
2023/05/31 07:24:04;;;;;;;;;;;;;;;13.61;54.47;101133.09;4958398;28;3814;-75
2023/05/31 07:26:30;;;;;;;;;;;;;;;13.74;54.41;101137.56;4981107;28;2202;-74
2023/05/31 07:28:57;;;;;;;;;;;;;;;13.68;54.49;101134.91;4977251;28;2919;-74
2023/05/31 07:31:23;;;;;;;;;;;;;;;13.64;54.72;101129.94;4980890;28;1736;-74
2023/05/31 07:33:50;;;;;;;;;;;;;;;13.63;54.49;101128.28;4973963;28;2140;-75
2023/05/31 07:36:17;;;;;;;;;;;;;;;13.63;54.54;101130.19;4947174;28;2139;-75
2023/05/31 07:38:43;;;;;;;;;;;;;;;13.64;54.74;101131.81;4982404;28;1557;-75
2023/05/31 07:41:10;;;;;;;;;;;;;;;13.62;54.46;101132.06;4960977;28;2780;-74
2023/05/31 07:43:39;;;;;;;;;;;;;;;13.64;54.59;101129.13;4964927;28;1648;-75
2023/05/31 07:46:06;;;;;;;;;;;;;;;13.63;54.66;101124.78;4979707;28;1882;-77
2023/05/31 07:48:33;;;;;;;;;;;;;;;13.62;54.61;101115.81;4977420;28;3770;-74
2023/05/31 07:51:00;;;;;;;;;;;;;;;13.62;54.66;101113.13;4982640;28;1615;-76
2023/05/31 07:53:26;;;;;;;;;;;;;;;13.64;54.81;101121.00;4972000;28;3748;-75
2023/05/31 07:55:52;;;;;;;;;;;;;;;13.64;54.76;101118.28;4980790;28;2253;-78
2023/05/31 07:58:19;;;;;;;;;;;;;;;13.64;54.79;101119.13;4977721;28;2112;-78
2023/05/31 08:00:46;;;;;;;;;;;;;;;13.64;54.77;101113.69;4956841;28;2197;-77
2023/05/31 08:03:12;;;;;;;;;;;;;;;13.65;54.80;101111.84;4983729;28;1347;-74
2023/05/31 08:05:39;;;;;;;;;;;;;;;13.65;54.87;101109.13;4982513;28;2959;-77
2023/05/31 08:08:06;;;;;;;;;;;;;;;13.66;54.89;101112.66;4985132;28;1015;-76
2023/05/31 08:10:33;;;;;;;;;;;;;;;13.66;54.91;101116.19;4982063;28;1640;-75
2023/05/31 08:13:00;;;;;;;;;;;;;;;13.66;54.93;101109.97;4981515;28;1903;-77
2023/05/31 08:15:26;;;;;;;;;;;;;;;13.66;54.87;101110.78;4956905;28;2255;-77
2023/05/31 08:17:53;;;;;;;;;;;;;;;13.67;54.97;101103.47;4958166;28;2442;-75
2023/05/31 08:20:19;;;;;;;;;;;;;;;13.66;54.81;101102.66;4982883;28;1559;-75
2023/05/31 08:22:46;;;;;;;;;;;;;;;13.67;54.88;101104.31;4981862;28;1723;-78
2023/05/31 08:25:13;;;;;;;;;;;;;;;13.67;55.05;101098.88;4970432;28;2125;-77
2023/05/31 08:27:39;;;;;;;;;;;;;;;13.67;54.96;101103.47;4979850;28;1508;-77
2023/05/31 08:30:06;;;;;;;;;;;;;;;13.67;55.05;101100.78;4979678;28;1568;-79
2023/05/31 08:32:33;;;;;;;;;;;;;;;13.68;55.18;101099.72;4983721;28;1969;-76
2023/05/31 08:34:59;;;;;;;;;;;;;;;13.68;55.13;101099.72;4983701;28;1926;-77
2023/05/31 08:37:26;;;;;;;;;;;;;;;13.69;55.11;101104.09;4970596;28;1797;-78
2023/05/31 08:39:53;;;;;;;;;;;;;;;13.69;55.23;101099.50;4962518;28;1968;-78
2023/05/31 08:42:19;;;;;;;;;;;;;;;13.69;54.99;101104.91;4974551;28;4239;-77
2023/05/31 08:44:46;;;;;;;;;;;;;;;13.69;55.10;101094.09;4979130;28;2537;-76
2023/05/31 08:47:12;;;;;;;;;;;;;;;13.70;55.02;101101.16;4979535;28;2840;-78
2023/05/31 08:49:39;;;;;;;;;;;;;;;13.71;55.25;101093.88;4983421;28;1075;-78
2023/05/31 08:52:06;;;;;;;;;;;;;;;13.71;55.23;101092.00;4966356;28;1659;-78
2023/05/31 08:54:32;;;;;;;;;;;;;;;13.72;55.27;101095.50;4975457;28;2201;-79
2023/05/31 08:56:59;;;;;;;;;;;;;;;13.73;55.23;101099.88;4980242;28;2113;-75
2023/05/31 08:59:25;;;;;;;;;;;;;;;13.72;55.25;101092.81;4977849;28;4695;-76
2023/05/31 09:01:52;;;;;;;;;;;;;;;13.73;55.33;101095.28;4978001;28;4422;-74
2023/05/31 09:04:19;;;;;;;;;;;;;;;13.72;55.13;101090.94;4982576;28;2001;-74
2023/05/31 09:06:45;;;;;;;;;;;;;;;13.74;55.02;101091.53;4968836;28;3067;-77
2023/05/31 09:09:12;;;;;;;;;;;;;;;13.73;55.14;101079.03;4982466;28;1370;-77
2023/05/31 09:11:40;;;;;;;;;;;;;;;13.74;55.32;101080.72;4971273;28;4011;-74
2023/05/31 09:14:08;;;;;;;;;;;;;;;13.75;55.27;101076.94;4981403;28;2955;-76
2023/05/31 09:16:34;;;;;;;;;;;;;;;13.76;55.31;101069.63;4976242;28;3049;-76
2023/05/31 09:19:02;;;;;;;;;;;;;;;13.76;55.25;101083.16;4978285;28;2158;-75
2023/05/31 09:21:28;;;;;;;;;;;;;;;13.77;55.33;101079.44;4976832;28;2267;-76
2023/05/31 09:23:55;;;;;;;;;;;;;;;13.77;55.45;101071.31;4980501;28;2072;-77
2023/05/31 09:26:23;;;;;;;;;;;;;;;13.79;55.37;101069.19;4980998;28;2267;-76
2023/05/31 09:28:49;;;;;;;;;;;;;;;13.78;55.38;101054.81;4961014;28;3026;-77
2023/05/31 09:31:17;;;;;;;;;;;;;;;13.80;55.27;101060.03;4964038;28;1601;-77
2023/05/31 09:33:43;;;;;;;;;;;;;;;13.80;55.43;101051.91;4978923;28;2212;-76
2023/05/31 09:36:11;;;;;;;;;;;;;;;13.82;55.35;101060.59;4979795;28;1903;-77
2023/05/31 09:38:37;;;;;;;;;;;;;;;13.81;55.49;101057.06;4960789;28;2169;-76
2023/05/31 09:41:04;;;;;;;;;;;;;;;13.82;55.44;101060.59;4959062;28;2355;-78
2023/05/31 09:43:30;;;;;;;;;;;;;;;13.82;55.33;101057.88;4982248;28;2234;-76
2023/05/31 09:45:57;;;;;;;;;;;;;;;13.84;55.55;101055.78;4979868;28;1578;-76
2023/05/31 09:48:23;;;;;;;;;;;;;;;13.85;55.40;101052.88;4981979;28;1345;-76
2023/05/31 09:50:50;;;;;;;;;;;;;;;13.85;55.54;101052.00;4979478;28;2440;-76
2023/05/31 09:53:16;;;;;;;;;;;;;;;13.85;55.48;101050.16;4981195;28;1980;-75
2023/05/31 09:55:43;;;;;;;;;;;;;;;13.86;55.45;101051.81;4975860;28;2342;-76
2023/05/31 09:58:09;;;;;;;;;;;;;;;13.86;55.47;101049.09;4979728;28;2100;-76
2023/05/31 10:00:36;;;;;;;;;;;;;;;13.88;55.55;101042.59;4983227;28;1060;-78
2023/05/31 10:03:03;;;;;;;;;;;;;;;13.89;55.63;101042.41;4980629;28;1491;-76
2023/05/31 10:05:29;;;;;;;;;;;;;;;13.89;55.66;101047.81;4982370;28;1682;-77
2023/05/31 10:07:56;;;;;;;;;;;;;;;13.91;55.81;101042.16;4970740;28;1583;-76
2023/05/31 10:10:22;;;;;;;;;;;;;;;13.92;55.57;101035.69;4964561;28;1924;-78
2023/05/31 10:12:49;;;;;;;;;;;;;;;13.93;55.78;101038.16;4980081;28;1903;-76
2023/05/31 10:15:15;;;;;;;;;;;;;;;13.94;55.92;101033.56;4979998;28;1550;-77
2023/05/31 10:17:42;;;;;;;;;;;;;;;13.95;55.96;101029.81;4980130;28;1670;-77
2023/05/31 10:20:09;;;;;;;;;;;;;;;13.95;55.70;101019.00;4977156;28;2482;-75
2023/05/31 10:22:35;;;;;;;;;;;;;;;13.95;55.81;101027.94;4982096;28;1068;-76
2023/05/31 10:25:02;;;;;;;;;;;;;;;13.98;55.72;101018.53;4980795;28;1360;-77
2023/05/31 10:27:28;;;;;;;;;;;;;;;13.98;55.68;101013.94;4974791;28;2029;-77
2023/05/31 10:29:55;;;;;;;;;;;;;;;13.99;55.79;101002.03;4979921;28;1883;-76
2023/05/31 10:32:21;;;;;;;;;;;;;;;14.00;56.05;101014.53;4962891;28;1504;-76
2023/05/31 10:34:48;;;;;;;;;;;;;;;14.00;55.80;101001.00;4980426;28;1981;-76
2023/05/31 10:37:18;;;;;;;;;;;;;;;14.02;56.01;101004.28;4981568;28;2305;-76
2023/05/31 10:39:44;;;;;;;;;;;;;;;14.03;56.12;100996.97;4980996;28;1319;-76
2023/05/31 10:42:11;;;;;;;;;;;;;;;14.03;55.81;100992.41;4979254;28;1694;-76
2023/05/31 10:44:38;;;;;;;;;;;;;;;14.04;55.85;100987.81;4982453;28;1398;-76
2023/05/31 10:47:07;;;;;;;;;;;;;;;14.06;56.07;100974.88;4979314;28;2109;-76
2023/05/31 10:49:34;;;;;;;;;;;;;;;14.07;56.21;100979.22;4964472;28;1833;-74
2023/05/31 10:52:00;;;;;;;;;;;;;;;14.08;56.16;100975.44;4982352;28;1310;-75
2023/05/31 10:54:27;;;;;;;;;;;;;;;14.08;56.08;100973.56;4979752;28;1985;-76
2023/05/31 10:56:54;;;;;;;;;;;;;;;14.09;56.18;100960.88;4981941;28;1031;-76
2023/05/31 10:59:21;;;;;;;;;;;;;;;14.11;56.05;100958.72;4968286;28;1518;-76
2023/05/31 11:01:47;;;;;;;;;;;;;;;14.12;56.25;100954.97;4970321;28;1962;-76
2023/05/31 11:04:14;;;;;;;;;;;;;;;14.14;56.07;100957.44;4980839;28;1773;-77
2023/05/31 11:06:40;;;;;;;;;;;;;;;14.15;56.33;100940.97;4979924;28;2041;-76
2023/05/31 11:09:08;;;;;;;;;;;;;;;14.17;56.19;100940.72;4964977;28;1627;-77
2023/05/31 11:11:34;;;;;;;;;;;;;;;14.18;56.39;100939.69;4981816;28;1079;-77
2023/05/31 11:14:01;;;;;;;;;;;;;;;14.19;56.24;100939.44;4979565;28;1906;-77
2023/05/31 11:16:28;;;;;;;;;;;;;;;14.20;56.34;100935.66;4979093;28;1960;-76
2023/05/31 11:18:55;;;;;;;;;;;;;;;14.21;56.43;100934.63;4969854;28;1652;-75
2023/05/31 11:21:21;;;;;;;;;;;;;;;14.22;56.41;100921.88;4981981;28;940;-75
2023/05/31 11:23:48;;;;;;;;;;;;;;;14.23;56.33;100913.50;4978856;28;1586;-75
2023/05/31 11:26:14;;;;;;;;;;;;;;;14.25;56.23;100905.97;4969463;28;1798;-77
2023/05/31 11:28:41;;;;;;;;;;;;;;;14.26;56.35;100913.03;4978975;28;1479;-76
2023/05/31 11:31:07;;;;;;;;;;;;;;;14.27;56.25;100900.34;4973966;28;4506;-78
2023/05/31 11:33:34;;;;;;;;;;;;;;;14.29;56.47;100909.03;4964450;28;1906;-78
2023/05/31 11:36:00;;;;;;;;;;;;;;;14.30;56.57;100905.28;4968472;28;3756;-77
2023/05/31 11:38:27;;;;;;;;;;;;;;;14.31;56.38;100901.50;4980221;28;1340;-77
2023/05/31 11:40:54;;;;;;;;;;;;;;;14.33;56.64;100899.41;4979358;28;1492;-78
2023/05/31 11:43:20;;;;;;;;;;;;;;;14.33;56.56;100896.69;4980077;28;1424;-76
2023/05/31 11:45:47;;;;;;;;;;;;;;;14.35;56.57;100894.53;4967591;28;2130;-77
2023/05/31 11:48:14;;;;;;;;;;;;;;;14.37;56.40;100894.31;4980977;28;3635;-76
2023/05/31 11:50:40;;;;;;;;;;;;;;;14.38;56.41;100894.06;4981386;28;1300;-77
2023/05/31 11:53:07;;;;;;;;;;;;;;;14.39;56.72;100886.78;4964134;28;1435;-78
2023/05/31 11:55:35;;;;;;;;;;;;;;;14.40;56.69;100877.59;4980266;28;1918;-77
2023/05/31 11:58:02;;;;;;;;;;;;;;;14.41;56.90;100882.78;4981075;28;1403;-78
2023/05/31 12:00:29;;;;;;;;;;;;;;;14.43;56.88;100869.81;4977865;28;1672;-78
2023/05/31 12:02:56;;;;;;;;;;;;;;;14.45;56.82;100875.00;4981451;28;991;-78
2023/05/31 12:05:23;;;;;;;;;;;;;;;14.46;56.90;100871.22;4964768;28;1770;-76
2023/05/31 12:07:49;;;;;;;;;;;;;;;14.48;56.86;100869.09;4981991;28;2080;-77
2023/05/31 12:10:16;;;;;;;;;;;;;;;14.49;57.00;100859.91;4973885;28;1661;-77
2023/05/31 12:12:42;;;;;;;;;;;;;;;14.50;56.80;100851.56;4985989;28;990;-77
2023/05/31 12:15:11;;;;;;;;;;;;;;;14.52;57.07;100846.72;4978702;28;2014;-77
2023/05/31 12:17:39;;;;;;;;;;;;;;;14.52;56.95;100841.31;4985379;28;1558;-76
2023/05/31 12:20:05;;;;;;;;;;;;;;;14.54;56.79;100851.94;4984492;28;1066;-75
2023/05/31 12:22:32;;;;;;;;;;;;;;;14.56;57.02;100849.81;4982185;28;1709;-76
2023/05/31 12:24:59;;;;;;;;;;;;;;;14.58;57.09;100850.38;4981215;28;1771;-77
2023/05/31 12:27:25;;;;;;;;;;;;;;;14.59;56.98;100860.16;4984914;28;951;-77
2023/05/31 12:29:52;;;;;;;;;;;;;;;14.70;57.03;100853.88;4982034;28;1517;-74
2023/05/31 12:32:19;;;;;;;;;;;;;;;14.74;56.93;100846.09;4983280;28;1619;-76
2023/05/31 12:34:47;;;;;;;;;;;;;;;14.70;57.09;100839.50;4982984;28;1911;-75
2023/05/31 12:37:13;;;;;;;;;;;;;;;14.70;57.08;100839.50;4966509;28;1040;-78
2023/05/31 12:39:40;;;;;;;;;;;;;;;14.71;56.95;100833.03;4977866;28;1515;-75
2023/05/31 12:42:07;;;;;;;;;;;;;;;14.71;57.04;100825.72;4965440;28;1593;-75
2023/05/31 12:44:33;;;;;;;;;;;;;;;14.72;57.07;100827.34;4969911;28;1952;-75
2023/05/31 12:47:00;;;;;;;;;;;;;;;14.73;56.87;100823.56;4961158;28;2022;-79
2023/05/31 12:49:26;;;;;;;;;;;;;;;14.75;57.08;100826.06;4970837;28;4056;-76
2023/05/31 12:51:53;;;;;;;;;;;;;;;14.77;57.00;100826.66;4963700;28;2126;-76
2023/05/31 12:54:20;;;;;;;;;;;;;;;14.79;56.92;100823.69;4984029;28;3067;-78
2023/05/31 12:56:46;;;;;;;;;;;;;;;14.80;56.99;100815.31;4969097;28;2191;-75
2023/05/31 12:59:13;;;;;;;;;;;;;;;14.81;57.15;100825.09;4981287;28;1554;-78
2023/05/31 13:01:40;;;;;;;;;;;;;;;14.83;57.10;100817.56;4965346;28;1931;-75
2023/05/31 13:04:07;;;;;;;;;;;;;;;14.85;57.27;100811.88;4983241;28;1535;-77